Time;durP1;ratioP1;P1;durP2;ratioP2;P2;SDS_P1;SDS_P2;PMS_P1;PMS_P2;Temp;Humidity;BMP_temperature;BMP_pressure;BME280_temperature;BME280_humidity;BME280_pressure;Samples;Min_cycle;Max_cycle;Signal;HPM_P1;HPM_P2
2021/07/21 00:02:22;;;;;;;2.83;0.40;;;;;;;;;;4992362;28;20026;-71
2021/07/21 00:04:49;;;;;;;4.93;0.60;;;;;;;;;;4994857;28;20021;-72
2021/07/21 00:07:17;;;;;;;2.60;0.57;;;;;;;;;;4993533;28;20428;-73
2021/07/21 00:09:44;;;;;;;4.57;0.60;;;;;;;;;;5012805;28;20042;-72
2021/07/21 00:14:56;;;;;;;3.88;0.40;;;;;;;;;;5009421;28;20423;-71
2021/07/21 00:17:27;;;;;;;7.45;0.93;;;;;;;;;;5009324;28;20089;-70
2021/07/21 00:20:09;;;;;;;2.92;0.40;;;;;;;;;;5007963;28;20026;-72
2021/07/21 00:22:46;;;;;;;2.55;0.50;;;;;;;;;;5011476;28;20387;-70
2021/07/21 00:25:14;;;;;;;3.08;0.50;;;;;;;;;;4999804;28;20030;-72
2021/07/21 00:27:45;;;;;;;3.50;0.22;;;;;;;;;;4991806;28;20120;-71
2021/07/21 00:30:14;;;;;;;5.32;1.05;;;;;;;;;;5015146;28;20056;-71
2021/07/21 00:32:41;;;;;;;6.80;1.10;;;;;;;;;;5012187;28;20558;-73
2021/07/21 00:35:09;;;;;;;5.28;0.47;;;;;;;;;;5009803;28;20037;-71
2021/07/21 00:37:36;;;;;;;5.55;1.23;;;;;;;;;;5014683;28;20460;-72
2021/07/21 00:40:04;;;;;;;2.92;0.45;;;;;;;;;;5015024;28;20498;-71
2021/07/21 00:42:32;;;;;;;4.32;0.55;;;;;;;;;;5007244;28;20057;-72
2021/07/21 00:44:59;;;;;;;7.32;0.57;;;;;;;;;;5015822;28;20435;-70
2021/07/21 00:47:26;;;;;;;6.20;0.82;;;;;;;;;;5013772;28;20040;-72
2021/07/21 00:49:53;;;;;;;3.63;0.52;;;;;;;;;;5012094;28;20029;-70
2021/07/21 00:52:20;;;;;;;3.63;0.57;;;;;;;;;;5009818;28;20072;-71
2021/07/21 00:54:48;;;;;;;4.57;0.60;;;;;;;;;;5012468;28;20033;-71
2021/07/21 00:57:15;;;;;;;5.93;1.10;;;;;;;;;;5004982;28;20030;-73
2021/07/21 00:59:42;;;;;;;2.08;0.40;;;;;;;;;;5012424;28;20029;-72
2021/07/21 01:02:09;;;;;;;4.00;0.90;;;;;;;;;;5006894;28;20113;-72
2021/07/21 01:04:37;;;;;;;6.13;1.58;;;;;;;;;;4999513;28;20120;-71
2021/07/21 01:07:05;;;;;;;5.70;1.40;;;;;;;;;;5011906;28;20026;-71
2021/07/21 01:09:33;;;;;;;4.55;0.60;;;;;;;;;;5009490;28;20050;-71
2021/07/21 01:12:03;;;;;;;6.70;1.75;;;;;;;;;;4997307;28;20030;-73
2021/07/21 01:14:48;;;;;;;5.75;0.88;;;;;;;;;;5009561;28;20390;-72
2021/07/21 01:17:19;;;;;;;6.57;1.45;;;;;;;;;;5007391;28;20075;-73
2021/07/21 01:19:46;;;;;;;4.78;0.57;;;;;;;;;;5014282;28;20478;-72
2021/07/21 01:22:22;;;;;;;6.20;0.80;;;;;;;;;;5012080;28;20033;-72
2021/07/21 01:25:08;;;;;;;4.93;0.90;;;;;;;;;;5004378;28;20030;-70
2021/07/21 01:27:44;;;;;;;8.05;1.02;;;;;;;;;;5009460;28;20471;-72
2021/07/21 01:30:13;;;;;;;7.78;1.08;;;;;;;;;;5014306;28;20025;-72
2021/07/21 01:32:41;;;;;;;2.55;0.60;;;;;;;;;;5005942;28;20030;-71
2021/07/21 01:35:11;;;;;;;3.92;0.68;;;;;;;;;;5014660;28;20118;-71
2021/07/21 01:37:40;;;;;;;4.50;0.80;;;;;;;;;;5011017;28;20026;-70
2021/07/21 01:40:09;;;;;;;5.65;1.05;;;;;;;;;;5012369;28;20025;-70
2021/07/21 01:42:37;;;;;;;5.25;1.20;;;;;;;;;;5013042;28;20825;-70
2021/07/21 01:45:05;;;;;;;3.53;0.52;;;;;;;;;;5014677;28;20499;-70
2021/07/21 01:47:33;;;;;;;12.00;1.50;;;;;;;;;;5012594;28;20026;-70
2021/07/21 01:50:02;;;;;;;6.30;1.38;;;;;;;;;;5014374;28;20026;-70
2021/07/21 01:52:30;;;;;;;9.40;1.23;;;;;;;;;;4992694;28;20034;-71
2021/07/21 01:54:58;;;;;;;5.78;0.90;;;;;;;;;;5007341;28;20037;-71
2021/07/21 01:57:28;;;;;;;6.55;1.20;;;;;;;;;;5011042;28;20152;-71
2021/07/21 01:59:56;;;;;;;6.25;1.10;;;;;;;;;;5013543;28;20386;-70
2021/07/21 02:02:24;;;;;;;5.75;0.60;;;;;;;;;;5012352;28;20026;-72
2021/07/21 02:04:52;;;;;;;7.72;1.05;;;;;;;;;;5014075;28;20041;-72
2021/07/21 02:07:20;;;;;;;7.95;0.85;;;;;;;;;;5011600;28;20552;-72
2021/07/21 02:09:47;;;;;;;5.60;0.90;;;;;;;;;;5000672;28;20047;-73
2021/07/21 02:12:15;;;;;;;4.68;0.82;;;;;;;;;;5005912;28;20029;-72
2021/07/21 02:14:43;;;;;;;8.40;1.23;;;;;;;;;;5016321;28;20430;-72
2021/07/21 02:17:10;;;;;;;4.03;0.90;;;;;;;;;;5004257;28;20048;-72
2021/07/21 02:19:38;;;;;;;4.65;0.55;;;;;;;;;;5013431;28;20033;-72
2021/07/21 02:22:05;;;;;;;3.40;0.40;;;;;;;;;;5010442;28;20022;-72
2021/07/21 02:24:34;;;;;;;5.97;0.60;;;;;;;;;;5013433;28;20146;-71
2021/07/21 02:27:02;;;;;;;7.13;1.70;;;;;;;;;;5001807;28;20018;-72
2021/07/21 02:29:29;;;;;;;4.82;0.65;;;;;;;;;;5011568;28;20018;-72
2021/07/21 02:32:02;;;;;;;5.80;1.05;;;;;;;;;;4993979;28;20092;-71
2021/07/21 02:34:30;;;;;;;3.42;0.73;;;;;;;;;;5001940;28;20490;-71
2021/07/21 02:36:58;;;;;;;3.58;0.52;;;;;;;;;;5008991;28;20391;-71
2021/07/21 02:39:25;;;;;;;4.65;0.65;;;;;;;;;;5013234;28;20414;-71
2021/07/21 02:41:53;;;;;;;3.83;0.77;;;;;;;;;;5011816;28;20062;-72
2021/07/21 02:44:20;;;;;;;5.72;0.73;;;;;;;;;;5013693;28;20034;-72
2021/07/21 02:46:48;;;;;;;6.68;1.48;;;;;;;;;;4992576;28;20443;-71
2021/07/21 02:49:16;;;;;;;4.65;0.85;;;;;;;;;;5008101;28;20022;-73
2021/07/21 02:52:01;;;;;;;3.33;0.57;;;;;;;;;;4993473;28;20037;-73
2021/07/21 02:54:28;;;;;;;;;;;;;;;;;;5009231;28;20026;-72
2021/07/21 02:56:57;;;;;;;4.18;0.68;;;;;;;;;;4993098;28;19945;-72
2021/07/21 02:59:25;;;;;;;4.07;0.60;;;;;;;;;;5011778;28;20108;-72
2021/07/21 03:01:52;;;;;;;5.43;0.90;;;;;;;;;;5011885;28;20049;-73
2021/07/21 03:04:21;;;;;;;5.43;0.57;;;;;;;;;;5008611;28;20518;-73
2021/07/21 03:06:51;;;;;;;7.55;1.27;;;;;;;;;;5005060;28;20112;-73
2021/07/21 03:09:19;;;;;;;5.05;0.85;;;;;;;;;;5011453;28;20046;-71
2021/07/21 03:11:49;;;;;;;8.32;0.95;;;;;;;;;;5011797;28;20058;-73
2021/07/21 03:14:16;;;;;;;5.30;0.68;;;;;;;;;;5008960;28;20038;-72
2021/07/21 03:16:47;;;;;;;4.40;0.88;;;;;;;;;;4998642;28;20041;-73
2021/07/21 03:19:16;;;;;;;4.50;0.75;;;;;;;;;;5008894;28;20436;-72
2021/07/21 03:21:43;;;;;;;4.28;1.02;;;;;;;;;;5008504;28;20022;-72
2021/07/21 03:24:11;;;;;;;4.90;0.73;;;;;;;;;;4989827;28;20133;-72
2021/07/21 03:26:39;;;;;;;11.23;1.05;;;;;;;;;;4993354;28;20124;-73
2021/07/21 03:29:07;;;;;;;2.97;0.75;;;;;;;;;;5012460;28;20385;-74
2021/07/21 03:31:35;;;;;;;2.25;0.43;;;;;;;;;;5007784;28;20024;-73
2021/07/21 03:34:12;;;;;;;2.65;0.50;;;;;;;;;;4998350;28;20422;-74
2021/07/21 03:36:42;;;;;;;5.10;1.13;;;;;;;;;;5002795;28;20442;-72
2021/07/21 03:39:13;;;;;;;6.80;0.65;;;;;;;;;;5012682;28;20479;-72
2021/07/21 03:41:40;;;;;;;5.22;0.43;;;;;;;;;;5003637;28;20034;-73
2021/07/21 03:44:09;;;;;;;5.18;0.90;;;;;;;;;;5002580;28;20033;-73
2021/07/21 03:46:40;;;;;;;3.63;0.77;;;;;;;;;;5010341;28;20036;-73
2021/07/21 03:49:08;;;;;;;3.80;0.93;;;;;;;;;;5012399;28;20047;-73
2021/07/21 03:51:36;;;;;;;7.20;0.68;;;;;;;;;;5009607;28;20018;-73
2021/07/21 03:54:04;;;;;;;2.70;0.70;;;;;;;;;;4994224;28;20038;-74
2021/07/21 03:56:32;;;;;;;3.92;0.70;;;;;;;;;;5008301;28;20018;-73
2021/07/21 03:59:01;;;;;;;2.00;0.43;;;;;;;;;;5010070;28;20105;-72
2021/07/21 04:01:28;;;;;;;2.97;0.50;;;;;;;;;;5006018;28;20026;-73
2021/07/21 04:03:56;;;;;;;6.95;1.35;;;;;;;;;;5004308;28;20028;-72
2021/07/21 04:06:24;;;;;;;4.22;0.70;;;;;;;;;;5006270;28;20028;-72
2021/07/21 04:08:54;;;;;;;8.75;3.10;;;;;;;;;;5007424;28;20130;-72
2021/07/21 04:11:22;;;;;;;6.25;0.95;;;;;;;;;;5003550;28;20491;-72
2021/07/21 04:13:49;;;;;;;5.00;0.80;;;;;;;;;;4990678;28;20217;-72
2021/07/21 04:16:17;;;;;;;3.47;0.90;;;;;;;;;;5001858;28;20693;-72
2021/07/21 04:18:45;;;;;;;7.97;1.30;;;;;;;;;;5006054;28;20041;-71
2021/07/21 04:21:12;;;;;;;7.22;1.08;;;;;;;;;;4990134;28;20121;-69
2021/07/21 04:23:42;;;;;;;3.03;0.82;;;;;;;;;;4991680;28;20038;-68
2021/07/21 04:26:10;;;;;;;4.57;0.55;;;;;;;;;;5004749;28;20029;-68
2021/07/21 04:28:39;;;;;;;3.10;0.55;;;;;;;;;;5005039;28;20029;-70
2021/07/21 04:31:07;;;;;;;4.28;1.00;;;;;;;;;;5004114;28;20490;-70
2021/07/21 04:33:34;;;;;;;4.63;1.00;;;;;;;;;;5003181;28;20395;-70
2021/07/21 04:36:02;;;;;;;7.57;0.88;;;;;;;;;;5006421;28;20508;-68
2021/07/21 04:38:30;;;;;;;3.28;0.90;;;;;;;;;;5015367;28;20146;-68
2021/07/21 04:40:57;;;;;;;3.22;0.60;;;;;;;;;;5016023;28;20088;-69
2021/07/21 04:43:24;;;;;;;3.63;0.80;;;;;;;;;;5016930;28;20051;-69
2021/07/21 04:45:52;;;;;;;5.28;1.40;;;;;;;;;;5001637;28;20041;-69
2021/07/21 04:48:19;;;;;;;4.00;0.95;;;;;;;;;;5003573;28;20084;-69
2021/07/21 04:50:49;;;;;;;5.45;0.85;;;;;;;;;;5023907;28;20032;-68
2021/07/21 04:53:16;;;;;;;8.07;0.52;;;;;;;;;;5002250;28;20052;-69
2021/07/21 04:55:46;;;;;;;7.45;0.82;;;;;;;;;;5016139;28;20066;-70
2021/07/21 04:58:14;;;;;;;5.03;0.77;;;;;;;;;;5015539;28;20022;-69
2021/07/21 05:00:41;;;;;;;4.95;0.80;;;;;;;;;;5026620;28;20033;-68
2021/07/21 05:03:10;;;;;;;4.03;0.80;;;;;;;;;;5018113;28;20006;-66
2021/07/21 05:05:37;;;;;;;5.00;1.02;;;;;;;;;;5026613;28;20014;-67
2021/07/21 05:08:05;;;;;;;9.23;1.38;;;;;;;;;;4914084;28;2771555;-75
2021/07/21 05:10:33;;;;;;;4.45;0.80;;;;;;;;;;5031114;28;20042;-69
2021/07/21 05:13:01;;;;;;;5.00;0.98;;;;;;;;;;5031380;28;20323;-69
2021/07/21 05:15:28;;;;;;;2.38;0.40;;;;;;;;;;5033954;28;20029;-68
2021/07/21 05:17:56;;;;;;;5.30;0.65;;;;;;;;;;5031736;28;20033;-68
2021/07/21 05:20:23;;;;;;;4.45;0.75;;;;;;;;;;5034375;28;20086;-69
2021/07/21 05:22:50;;;;;;;3.30;0.35;;;;;;;;;;5015282;28;20018;-69
2021/07/21 05:25:18;;;;;;;4.25;0.70;;;;;;;;;;5029924;28;20030;-69
2021/07/21 05:27:45;;;;;;;2.35;0.30;;;;;;;;;;5025176;28;20049;-70
2021/07/21 05:30:14;;;;;;;5.70;0.98;;;;;;;;;;5025323;28;20030;-69
2021/07/21 05:32:41;;;;;;;4.28;1.48;;;;;;;;;;5032622;28;20032;-69
2021/07/21 05:35:08;;;;;;;3.08;0.60;;;;;;;;;;5027373;28;20037;-71
2021/07/21 05:37:36;;;;;;;3.60;0.65;;;;;;;;;;5017923;28;20033;-70
2021/07/21 05:40:04;;;;;;;3.78;0.60;;;;;;;;;;5001745;28;20076;-70
2021/07/21 05:42:31;;;;;;;3.08;0.50;;;;;;;;;;5013384;28;20025;-70
2021/07/21 05:44:58;;;;;;;3.20;0.50;;;;;;;;;;5015602;28;20048;-69
2021/07/21 05:47:25;;;;;;;6.10;0.95;;;;;;;;;;5004715;28;20038;-69
2021/07/21 05:49:52;;;;;;;8.00;1.92;;;;;;;;;;5011416;28;20083;-69
2021/07/21 05:52:19;;;;;;;7.63;1.10;;;;;;;;;;5008555;28;20074;-69
2021/07/21 05:54:46;;;;;;;6.30;0.80;;;;;;;;;;5022804;28;20088;-68
2021/07/21 05:57:13;;;;;;;4.72;0.52;;;;;;;;;;5021618;28;20169;-69
2021/07/21 05:59:40;;;;;;;6.50;0.90;;;;;;;;;;5016579;28;20133;-68
2021/07/21 06:02:09;;;;;;;5.38;1.63;;;;;;;;;;4997309;28;20081;-70
2021/07/21 06:04:39;;;;;;;3.22;0.47;;;;;;;;;;5004757;28;20053;-70
2021/07/21 06:07:08;;;;;;;3.92;0.68;;;;;;;;;;4995653;28;20081;-70
2021/07/21 06:09:36;;;;;;;2.75;0.38;;;;;;;;;;5002580;28;20100;-70
2021/07/21 06:12:03;;;;;;;6.18;0.50;;;;;;;;;;5016461;28;20061;-70
2021/07/21 06:14:32;;;;;;;3.85;0.43;;;;;;;;;;5016787;28;20034;-69
2021/07/21 06:16:59;;;;;;;5.50;0.75;;;;;;;;;;5012312;28;20022;-69
2021/07/21 06:19:26;;;;;;;3.13;0.77;;;;;;;;;;5016648;28;20044;-70
2021/07/21 06:21:53;;;;;;;4.70;0.73;;;;;;;;;;5016736;28;20157;-69
2021/07/21 06:24:21;;;;;;;4.47;1.08;;;;;;;;;;5011631;28;20033;-69
2021/07/21 06:26:48;;;;;;;3.65;0.50;;;;;;;;;;5021730;28;20057;-69
2021/07/21 06:29:16;;;;;;;5.63;0.80;;;;;;;;;;5014468;28;20058;-69
2021/07/21 06:31:43;;;;;;;3.97;0.85;;;;;;;;;;5024237;28;20025;-68
2021/07/21 06:34:10;;;;;;;6.78;0.90;;;;;;;;;;5027615;28;20042;-69
2021/07/21 06:36:38;;;;;;;2.97;0.65;;;;;;;;;;5030810;28;20033;-67
2021/07/21 06:39:05;;;;;;;3.10;0.68;;;;;;;;;;5029594;28;20767;-69
2021/07/21 06:41:32;;;;;;;4.88;0.68;;;;;;;;;;5028942;28;20139;-68
2021/07/21 06:44:00;;;;;;;4.03;0.73;;;;;;;;;;5038219;28;20077;-68
2021/07/21 06:46:28;;;;;;;7.60;1.25;;;;;;;;;;5030887;28;20505;-68
2021/07/21 06:48:55;;;;;;;5.57;1.20;;;;;;;;;;5025031;28;20042;-68
2021/07/21 06:51:22;;;;;;;3.63;0.82;;;;;;;;;;5008652;28;20030;-68
2021/07/21 06:53:50;;;;;;;8.25;1.08;;;;;;;;;;5024069;28;20033;-69
2021/07/21 06:56:17;;;;;;;4.78;1.20;;;;;;;;;;5000190;28;20560;-68
2021/07/21 06:58:44;;;;;;;8.98;1.02;;;;;;;;;;5021826;28;20054;-69
2021/07/21 07:01:11;;;;;;;3.13;1.02;;;;;;;;;;5000885;28;20038;-67
2021/07/21 07:03:38;;;;;;;4.10;0.82;;;;;;;;;;5024693;28;20042;-68
2021/07/21 07:06:05;;;;;;;4.70;0.70;;;;;;;;;;5010874;28;20057;-67
2021/07/21 07:08:32;;;;;;;5.60;1.00;;;;;;;;;;5028765;28;20046;-68
2021/07/21 07:11:00;;;;;;;3.80;1.83;;;;;;;;;;5024891;28;20124;-68
2021/07/21 07:13:27;;;;;;;3.70;1.00;;;;;;;;;;5029675;28;20121;-67
2021/07/21 07:15:55;;;;;;;11.40;1.48;;;;;;;;;;5028469;28;20044;-68
2021/07/21 07:18:22;;;;;;;7.53;1.35;;;;;;;;;;5007954;28;20029;-71
2021/07/21 07:20:50;;;;;;;5.60;1.30;;;;;;;;;;5009792;28;20049;-70
2021/07/21 07:23:17;;;;;;;4.60;0.95;;;;;;;;;;5007863;28;20029;-70
2021/07/21 07:25:44;;;;;;;5.72;0.98;;;;;;;;;;5008236;28;20048;-70
2021/07/21 07:28:11;;;;;;;7.72;1.27;;;;;;;;;;5007371;28;20105;-70
2021/07/21 07:30:39;;;;;;;5.45;1.40;;;;;;;;;;4991136;28;20041;-70
2021/07/21 07:33:06;;;;;;;6.20;1.77;;;;;;;;;;4990893;28;20627;-70
2021/07/21 07:35:36;;;;;;;8.15;2.50;;;;;;;;;;5008805;28;20091;-70
2021/07/21 07:38:04;;;;;;;12.50;5.20;;;;;;;;;;4988295;28;20041;-69
2021/07/21 07:40:31;;;;;;;9.68;3.70;;;;;;;;;;5009187;28;20029;-70
2021/07/21 07:42:58;;;;;;;10.82;3.05;;;;;;;;;;4991945;28;20029;-69
2021/07/21 07:45:25;;;;;;;8.35;2.97;;;;;;;;;;5008714;28;20033;-70
2021/07/21 07:47:52;;;;;;;9.60;4.20;;;;;;;;;;5008183;28;20441;-70
2021/07/21 07:50:19;;;;;;;15.90;6.68;;;;;;;;;;5010331;28;20034;-70
2021/07/21 07:52:46;;;;;;;8.93;3.85;;;;;;;;;;5018925;28;20112;-70
2021/07/21 07:55:13;;;;;;;6.07;1.63;;;;;;;;;;5029547;28;20080;-71
2021/07/21 07:57:41;;;;;;;7.07;3.13;;;;;;;;;;5021454;28;20052;-71
2021/07/21 08:00:10;;;;;;;6.53;2.08;;;;;;;;;;5031698;28;20071;-71
2021/07/21 08:02:38;;;;;;;10.82;4.50;;;;;;;;;;5012598;28;20030;-72
2021/07/21 08:05:06;;;;;;;10.38;4.70;;;;;;;;;;5012450;28;20077;-71
2021/07/21 08:07:35;;;;;;;13.50;3.28;;;;;;;;;;5027914;28;20052;-70
2021/07/21 08:10:03;;;;;;;9.38;3.17;;;;;;;;;;5012007;28;20133;-71
2021/07/21 08:12:30;;;;;;;10.23;2.55;;;;;;;;;;5012454;28;20022;-70
2021/07/21 08:14:57;;;;;;;5.93;1.60;;;;;;;;;;5003594;28;20104;-71
2021/07/21 08:17:24;;;;;;;7.45;1.27;;;;;;;;;;5012331;28;20047;-71
2021/07/21 08:19:51;;;;;;;8.27;1.90;;;;;;;;;;5024679;28;20030;-71
2021/07/21 08:22:19;;;;;;;6.88;1.92;;;;;;;;;;5020735;28;20025;-71
2021/07/21 08:24:46;;;;;;;6.75;2.00;;;;;;;;;;5031298;28;20033;-71
2021/07/21 08:27:13;;;;;;;14.00;4.82;;;;;;;;;;5030804;28;20018;-71
2021/07/21 08:29:40;;;;;;;9.45;2.42;;;;;;;;;;5013417;28;20091;-70
2021/07/21 08:32:07;;;;;;;7.97;1.38;;;;;;;;;;5031938;28;20071;-70
2021/07/21 08:34:35;;;;;;;9.50;1.80;;;;;;;;;;5009905;28;20227;-71
2021/07/21 08:37:02;;;;;;;13.35;3.03;;;;;;;;;;5029441;28;20913;-71
2021/07/21 08:39:29;;;;;;;10.23;2.03;;;;;;;;;;5007101;28;20034;-71
2021/07/21 08:41:56;;;;;;;8.25;2.17;;;;;;;;;;5021407;28;20083;-70
2021/07/21 08:44:23;;;;;;;12.40;3.13;;;;;;;;;;5029798;28;20026;-71
2021/07/21 08:46:50;;;;;;;7.47;2.92;;;;;;;;;;5012857;28;20048;-71
2021/07/21 08:49:17;;;;;;;10.68;3.33;;;;;;;;;;5028322;28;20026;-70
2021/07/21 08:51:45;;;;;;;6.85;2.40;;;;;;;;;;5016578;28;20033;-69
2021/07/21 08:54:16;;;;;;;11.75;2.40;;;;;;;;;;5001520;28;20042;-70
2021/07/21 08:56:45;;;;;;;8.43;2.30;;;;;;;;;;5001431;28;20481;-70
2021/07/21 08:59:16;;;;;;;9.35;2.33;;;;;;;;;;5017051;28;20034;-70
2021/07/21 09:01:43;;;;;;;8.50;2.25;;;;;;;;;;5017014;28;20025;-70
2021/07/21 09:04:11;;;;;;;9.07;2.28;;;;;;;;;;5023400;28;20025;-70
2021/07/21 09:06:39;;;;;;;10.73;2.75;;;;;;;;;;5034179;28;20022;-71
2021/07/21 09:09:06;;;;;;;6.53;2.85;;;;;;;;;;5016149;28;20494;-71
2021/07/21 09:11:34;;;;;;;10.85;4.25;;;;;;;;;;5026253;28;20026;-70
2021/07/21 09:14:01;;;;;;;11.35;4.90;;;;;;;;;;5029621;28;20036;-69
2021/07/21 09:16:28;;;;;;;13.27;4.22;;;;;;;;;;5034300;28;20027;-70
2021/07/21 09:18:58;;;;;;;11.32;3.22;;;;;;;;;;5017382;28;20037;-70
2021/07/21 09:21:27;;;;;;;13.55;3.80;;;;;;;;;;5015039;28;20026;-70
2021/07/21 09:23:55;;;;;;;5.75;2.15;;;;;;;;;;5033739;28;20021;-70
2021/07/21 09:26:25;;;;;;;8.98;2.83;;;;;;;;;;5012460;28;20547;-69
2021/07/21 09:28:52;;;;;;;8.88;3.00;;;;;;;;;;5005923;28;20079;-70
2021/07/21 09:31:39;;;;;;;11.70;4.85;;;;;;;;;;5033046;28;20037;-70
2021/07/21 09:34:14;;;;;;;11.13;4.80;;;;;;;;;;5012219;28;20038;-70
2021/07/21 09:36:41;;;;;;;14.98;5.63;;;;;;;;;;5027143;28;20017;-70
2021/07/21 09:39:10;;;;;;;11.30;5.72;;;;;;;;;;5026344;28;20109;-70
2021/07/21 09:41:39;;;;;;;12.98;5.47;;;;;;;;;;5012602;28;20042;-70
2021/07/21 09:44:07;;;;;;;15.10;6.07;;;;;;;;;;5013306;28;20533;-71
2021/07/21 09:46:34;;;;;;;21.27;7.63;;;;;;;;;;5008076;28;20056;-71
2021/07/21 09:49:01;;;;;;;14.35;5.70;;;;;;;;;;5009985;28;20499;-70
2021/07/21 09:51:38;;;;;;;13.32;4.85;;;;;;;;;;5032173;28;20479;-70
2021/07/21 09:54:18;;;;;;;9.65;3.22;;;;;;;;;;5032745;28;20033;-70
2021/07/21 09:56:48;;;;;;;8.77;3.20;;;;;;;;;;5033214;28;20049;-69
2021/07/21 09:59:24;;;;;;;7.93;2.20;;;;;;;;;;5005002;28;20029;-70
2021/07/21 10:01:52;;;;;;;7.78;2.90;;;;;;;;;;5019830;28;20083;-69
2021/07/21 10:04:48;;;;;;;11.43;3.28;;;;;;;;;;5033489;28;20029;-69
2021/07/21 10:07:48;;;;;;;12.85;2.47;;;;;;;;;;5014651;28;20057;-69
2021/07/21 10:10:16;;;;;;;9.52;2.58;;;;;;;;;;5012122;28;20391;-70
2021/07/21 10:12:43;;;;;;;9.38;3.17;;;;;;;;;;5034194;28;20104;-70
2021/07/21 10:15:11;;;;;;;9.60;3.35;;;;;;;;;;5015601;28;20041;-70
2021/07/21 10:17:38;;;;;;;7.07;2.85;;;;;;;;;;5021863;28;20100;-70
2021/07/21 10:20:05;;;;;;;14.10;3.85;;;;;;;;;;5020510;28;20028;-71
2021/07/21 10:22:33;;;;;;;16.05;3.97;;;;;;;;;;5018514;28;20509;-71
2021/07/21 10:25:00;;;;;;;8.57;3.38;;;;;;;;;;5033764;28;20017;-70
2021/07/21 10:27:27;;;;;;;11.15;3.78;;;;;;;;;;5023800;28;20243;-71
2021/07/21 10:29:57;;;;;;;9.77;3.17;;;;;;;;;;4996462;28;20391;-71
2021/07/21 10:32:24;;;;;;;17.10;4.38;;;;;;;;;;5014057;28;20041;-71
2021/07/21 10:34:51;;;;;;;11.27;3.25;;;;;;;;;;5026045;28;20036;-70
2021/07/21 10:37:19;;;;;;;12.20;2.95;;;;;;;;;;5019624;28;20076;-69
2021/07/21 10:39:46;;;;;;;9.15;2.08;;;;;;;;;;5012093;28;20069;-69
2021/07/21 10:42:17;;;;;;;6.72;2.30;;;;;;;;;;5021024;28;20397;-70
2021/07/21 10:44:55;;;;;;;10.02;2.55;;;;;;;;;;5014556;28;20108;-70
2021/07/21 10:47:31;;;;;;;8.93;2.40;;;;;;;;;;5015930;28;20048;-70
2021/07/21 10:50:09;;;;;;;9.55;2.40;;;;;;;;;;5028268;28;20022;-71
2021/07/21 10:52:50;;;;;;;12.73;3.47;;;;;;;;;;5033355;28;20084;-69
2021/07/21 10:55:35;;;;;;;9.35;2.95;;;;;;;;;;4987772;28;20038;-69
2021/07/21 11:00:57;;;;;;;11.85;4.55;;;;;;;;;;5024790;28;20394;-69
2021/07/21 11:03:34;;;;;;;13.98;4.35;;;;;;;;;;5012821;28;20069;-70
2021/07/21 11:06:07;;;;;;;13.15;4.88;;;;;;;;;;5017838;28;20030;-70
2021/07/21 11:08:55;;;;;;;10.90;5.30;;;;;;;;;;5014435;28;20110;-73
2021/07/21 11:11:23;;;;;;;12.57;4.57;;;;;;;;;;5006622;28;20034;-71
2021/07/21 11:14:01;;;;;;;8.90;3.22;;;;;;;;;;5009051;28;20041;-70
2021/07/21 11:16:41;;;;;;;11.15;3.70;;;;;;;;;;5008340;28;20029;-70
2021/07/21 11:19:28;;;;;;;8.45;3.80;;;;;;;;;;5009450;28;20026;-70
2021/07/21 11:22:00;;;;;;;12.98;4.15;;;;;;;;;;4982204;28;20116;-70
2021/07/21 11:24:30;;;;;;;8.48;3.53;;;;;;;;;;5009643;28;20117;-70
2021/07/21 11:26:58;;;;;;;16.48;3.65;;;;;;;;;;4993581;28;20482;-70
2021/07/21 11:29:27;;;;;;;13.85;4.30;;;;;;;;;;5008870;28;20029;-70
2021/07/21 11:31:54;;;;;;;10.32;4.15;;;;;;;;;;5010965;28;20018;-71
2021/07/21 11:34:30;;;;;;;16.98;3.30;;;;;;;;;;5011010;28;20042;-71
2021/07/21 11:36:58;;;;;;;10.40;3.50;;;;;;;;;;5012840;28;20414;-70
2021/07/21 11:39:45;;;;;;;12.23;3.58;;;;;;;;;;5011899;28;20021;-71
2021/07/21 11:42:27;;;;;;;14.00;4.22;;;;;;;;;;5012227;28;20022;-70
2021/07/21 11:45:03;;;;;;;12.75;3.33;;;;;;;;;;5007020;28;20029;-70
2021/07/21 11:47:35;;;;;;;11.55;2.90;;;;;;;;;;5009354;28;20022;-71
2021/07/21 11:50:03;;;;;;;8.30;2.85;;;;;;;;;;5008452;28;20036;-70
2021/07/21 11:52:31;;;;;;;10.57;3.60;;;;;;;;;;5005848;28;20026;-71
2021/07/21 11:54:58;;;;;;;8.70;3.45;;;;;;;;;;5005858;28;20034;-71
2021/07/21 11:57:28;;;;;;;8.50;2.83;;;;;;;;;;5010780;28;20026;-71
2021/07/21 11:59:56;;;;;;;9.38;2.63;;;;;;;;;;5010313;28;20068;-72
2021/07/21 12:02:26;;;;;;;11.05;2.80;;;;;;;;;;5009740;28;20438;-71
2021/07/21 12:04:59;;;;;;;11.40;2.85;;;;;;;;;;5011152;28;20034;-70
2021/07/21 12:07:32;;;;;;;8.93;2.60;;;;;;;;;;5010068;28;20033;-70
2021/07/21 12:09:59;;;;;;;8.77;2.80;;;;;;;;;;5011432;28;20049;-70
2021/07/21 12:12:26;;;;;;;10.85;2.42;;;;;;;;;;5010169;28;20109;-71
2021/07/21 12:14:55;;;;;;;7.85;2.78;;;;;;;;;;5011873;28;20066;-70
2021/07/21 12:17:24;;;;;;;11.68;2.13;;;;;;;;;;5006559;28;20026;-70
2021/07/21 12:19:58;;;;;;;11.15;3.08;;;;;;;;;;5010933;28;20106;-71
2021/07/21 12:22:26;;;;;;;13.68;2.83;;;;;;;;;;5008484;28;20071;-71
2021/07/21 12:24:57;;;;;;;10.48;3.10;;;;;;;;;;5010415;28;20045;-71
2021/07/21 12:27:31;;;;;;;8.20;2.22;;;;;;;;;;4992840;28;20029;-70
2021/07/21 12:30:07;;;;;;;12.40;3.10;;;;;;;;;;5007942;28;20642;-71
2021/07/21 12:32:35;;;;;;;8.73;2.92;;;;;;;;;;5010197;28;20038;-71
2021/07/21 12:35:02;;;;;;;7.60;2.15;;;;;;;;;;5008265;28;20040;-70
2021/07/21 12:37:30;;;;;;;9.70;2.53;;;;;;;;;;5010499;28;20029;-71
2021/07/21 12:39:58;;;;;;;8.25;2.60;;;;;;;;;;5010116;28;20034;-71
2021/07/21 12:42:27;;;;;;;4.47;2.42;;;;;;;;;;5009104;28;20506;-71
2021/07/21 12:44:58;;;;;;;7.00;2.58;;;;;;;;;;5011371;28;20041;-71
2021/07/21 12:47:27;;;;;;;8.50;2.92;;;;;;;;;;5005981;28;20378;-69
2021/07/21 12:49:56;;;;;;;11.52;3.60;;;;;;;;;;5009391;28;20030;-71
2021/07/21 12:52:25;;;;;;;5.40;2.80;;;;;;;;;;5009666;28;20021;-70
2021/07/21 12:54:54;;;;;;;11.52;3.10;;;;;;;;;;4991089;28;20141;-70
2021/07/21 12:57:39;;;;;;;12.52;4.47;;;;;;;;;;5005892;28;20030;-72
2021/07/21 13:00:07;;;;;;;11.20;2.75;;;;;;;;;;4992302;28;20041;-70
2021/07/21 13:02:34;;;;;;;6.75;2.65;;;;;;;;;;4993045;28;20050;-72
2021/07/21 13:05:01;;;;;;;5.13;2.38;;;;;;;;;;5000533;28;20036;-71
2021/07/21 13:07:29;;;;;;;9.55;2.58;;;;;;;;;;5008837;28;20014;-71
2021/07/21 13:09:56;;;;;;;9.70;2.47;;;;;;;;;;4988836;28;20491;-70
2021/07/21 13:12:23;;;;;;;6.00;2.20;;;;;;;;;;4991015;28;20037;-70
2021/07/21 13:14:59;;;;;;;9.00;2.55;;;;;;;;;;4989921;28;20534;-71
2021/07/21 13:17:27;;;;;;;5.57;1.85;;;;;;;;;;4987760;28;20057;-72
2021/07/21 13:20:01;;;;;;;7.25;1.83;;;;;;;;;;4989917;28;20119;-71
2021/07/21 13:22:28;;;;;;;4.70;1.98;;;;;;;;;;4987285;28;20030;-70
2021/07/21 13:24:55;;;;;;;6.80;1.75;;;;;;;;;;4991066;28;20494;-70
2021/07/21 13:27:30;;;;;;;4.20;1.73;;;;;;;;;;4987876;28;20083;-71
2021/07/21 13:29:58;;;;;;;5.63;2.00;;;;;;;;;;4991742;28;20169;-70
2021/07/21 13:32:26;;;;;;;5.28;2.00;;;;;;;;;;4980039;28;20562;-70
2021/07/21 13:35:04;;;;;;;3.90;1.55;;;;;;;;;;4992151;28;20034;-70
2021/07/21 13:37:31;;;;;;;2.30;1.40;;;;;;;;;;4992225;28;20029;-69
2021/07/21 13:40:09;;;;;;;6.35;1.63;;;;;;;;;;4994978;28;20034;-70
2021/07/21 13:42:36;;;;;;;5.93;2.10;;;;;;;;;;4989381;28;20023;-70
2021/07/21 13:45:06;;;;;;;6.43;1.90;;;;;;;;;;4993727;28;20432;-71
2021/07/21 13:47:33;;;;;;;6.03;1.77;;;;;;;;;;4986348;28;20096;-71
2021/07/21 13:50:16;;;;;;;5.60;1.90;;;;;;;;;;4994615;28;20460;-70
2021/07/21 13:52:44;;;;;;;4.80;1.77;;;;;;;;;;4993420;28;20027;-71
2021/07/21 13:55:11;;;;;;;4.63;1.42;;;;;;;;;;4995317;28;20391;-70
2021/07/21 13:57:39;;;;;;;7.40;1.83;;;;;;;;;;4993974;28;20019;-71
2021/07/21 14:00:06;;;;;;;4.95;2.50;;;;;;;;;;4995275;28;20027;-71
2021/07/21 14:02:34;;;;;;;5.63;1.67;;;;;;;;;;4992728;28;20065;-71
2021/07/21 14:05:01;;;;;;;7.03;2.35;;;;;;;;;;4994205;28;20488;-70
2021/07/21 14:07:28;;;;;;;8.55;2.30;;;;;;;;;;4991139;28;20050;-71
2021/07/21 14:09:57;;;;;;;3.92;1.45;;;;;;;;;;5010090;28;20042;-70
2021/07/21 14:12:24;;;;;;;5.80;1.88;;;;;;;;;;5012561;28;20114;-71
2021/07/21 14:14:51;;;;;;;5.10;2.40;;;;;;;;;;5013091;28;20077;-71
2021/07/21 14:17:18;;;;;;;4.07;1.83;;;;;;;;;;5010767;28;20044;-71
2021/07/21 14:19:47;;;;;;;4.57;2.08;;;;;;;;;;5012642;28;20026;-71
2021/07/21 14:22:14;;;;;;;6.72;2.03;;;;;;;;;;4993481;28;20044;-71
2021/07/21 14:24:41;;;;;;;4.95;1.98;;;;;;;;;;5014074;28;20036;-71
2021/07/21 14:27:08;;;;;;;5.45;2.03;;;;;;;;;;5011989;28;20109;-72
2021/07/21 14:29:35;;;;;;;6.03;2.13;;;;;;;;;;5013814;28;20026;-71
2021/07/21 14:32:03;;;;;;;8.10;1.95;;;;;;;;;;5012350;28;20123;-70
2021/07/21 14:34:30;;;;;;;4.05;2.15;;;;;;;;;;5013454;28;20073;-71
2021/07/21 14:36:57;;;;;;;7.22;2.10;;;;;;;;;;5010783;28;20030;-71
2021/07/21 14:39:24;;;;;;;6.15;2.15;;;;;;;;;;5012548;28;20506;-70
2021/07/21 14:41:53;;;;;;;6.40;2.38;;;;;;;;;;5012299;28;20528;-71
2021/07/21 14:44:21;;;;;;;3.90;1.75;;;;;;;;;;5013902;28;20018;-70
2021/07/21 14:46:48;;;;;;;4.72;2.10;;;;;;;;;;5007295;28;20417;-70
2021/07/21 14:49:17;;;;;;;6.25;2.13;;;;;;;;;;4998884;28;20494;-70
2021/07/21 14:51:45;;;;;;;7.38;2.45;;;;;;;;;;5012394;28;20360;-70
2021/07/21 14:54:13;;;;;;;6.05;2.30;;;;;;;;;;4995881;28;20038;-72
2021/07/21 14:56:40;;;;;;;4.95;2.45;;;;;;;;;;4994279;28;20034;-70
2021/07/21 14:59:08;;;;;;;10.15;2.80;;;;;;;;;;5011336;28;20061;-70